Dykesville, Louisiana
Current Conditions -  °F | °C
As of 7:36 PM on Friday 21 Nov 2014 (Local Time) from KMNE Reporting Station
Light Rain Light Rain  
Wind Chill: 59°   Ceiling: 6500
Heat Index: 59°   Visibility: 10mi
Dew Point: 54°   Wind: 5mph
Humidity: 82%   Direction: 150°SSE
Pressure: 30.22"   Gusts: NA
Location:  32.9128°N, 93.0286°W
Report Text: KMNE 220136Z AUTO 15004KT 10SM -RA SCT055 BKN065 OVC080 15/12 A3022 RMK AO2
Loading
Personal Weather Stations






























Interactive Weather Map New forecast layout! Learn more

10-Day Weather Forecast

Advertisements
Track Severe Weather on mobile